Time;durP1;ratioP1;P1;durP2;ratioP2;P2;SDS_P1;SDS_P2;PMS_P1;PMS_P2;Temp;Humidity;BMP_temperature;BMP_pressure;BME280_temperature;BME280_humidity;BME280_pressure;Samples;Min_cycle;Max_cycle;Signal;HPM_P1;HPM_P2
2022/06/19 00:02:20;;;;;;;10.45;1.73;;;19.30;69.50;;;;;;5094959;28;20119;-75
2022/06/19 00:04:48;;;;;;;9.55;1.35;;;19.50;68.50;;;;;;5094963;28;20020;-75
2022/06/19 00:07:14;;;;;;;9.00;1.67;;;19.60;68.50;;;;;;5094826;28;20020;-75
2022/06/19 00:09:40;;;;;;;11.55;1.85;;;19.70;67.90;;;;;;5094613;28;20023;-75
2022/06/19 00:12:06;;;;;;;9.25;1.58;;;19.60;67.40;;;;;;5095052;28;20115;-76
2022/06/19 00:14:33;;;;;;;9.13;1.50;;;19.50;67.80;;;;;;5094579;28;20020;-76
2022/06/19 00:17:00;;;;;;;10.98;1.65;;;19.40;68.10;;;;;;5094506;28;20036;-76
2022/06/19 00:19:25;;;;;;;12.68;1.70;;;19.40;67.90;;;;;;5094304;28;20016;-75
2022/06/19 00:21:51;;;;;;;12.80;2.28;;;19.40;68.00;;;;;;5093888;28;20089;-75
2022/06/19 00:24:17;;;;;;;9.35;1.35;;;19.40;68.00;;;;;;5094311;28;20114;-75
2022/06/19 00:26:42;;;;;;;10.40;1.52;;;19.40;68.20;;;;;;5094134;28;20030;-75
2022/06/19 00:29:08;;;;;;;10.82;1.38;;;19.40;68.10;;;;;;5094508;28;20025;-75
2022/06/19 00:31:34;;;;;;;13.45;1.60;;;19.40;68.50;;;;;;5094195;28;20028;-75
2022/06/19 00:34:00;;;;;;;11.77;1.40;;;19.60;68.60;;;;;;5093802;28;20077;-76
2022/06/19 00:36:26;;;;;;;10.90;1.10;;;19.70;68.10;;;;;;5093899;28;20053;-76
2022/06/19 00:38:52;;;;;;;9.30;1.80;;;19.60;68.20;;;;;;5094360;28;20028;-76
2022/06/19 00:41:18;;;;;;;12.32;2.10;;;19.60;68.10;;;;;;5093678;28;20384;-75
2022/06/19 00:44:01;;;;;;;11.27;2.05;;;19.40;68.10;;;;;;5093929;28;20073;-76
2022/06/19 00:46:53;;;;;;;15.25;2.20;;;19.20;68.80;;;;;;5094006;28;20024;-76
2022/06/19 00:49:30;;;;;;;6.93;1.48;;;19.10;69.50;;;;;;5093797;28;20055;-76
2022/06/19 00:52:04;;;;;;;12.77;1.98;;;18.90;69.90;;;;;;5093919;28;20380;-76
2022/06/19 00:54:34;;;;;;;11.25;1.77;;;19.00;69.80;;;;;;5093791;28;20031;-76
2022/06/19 00:57:00;;;;;;;11.60;1.20;;;19.00;69.60;;;;;;5093413;28;20036;-75
2022/06/19 00:59:26;;;;;;;12.45;1.90;;;18.90;69.80;;;;;;5093797;28;20027;-75
2022/06/19 01:01:51;;;;;;;17.15;2.05;;;18.90;70.20;;;;;;5093497;28;20043;-75
2022/06/19 01:04:30;;;;;;;15.93;1.77;;;18.70;70.60;;;;;;5093582;28;20107;-75
2022/06/19 01:06:56;;;;;;;9.00;1.48;;;18.70;71.00;;;;;;5093520;28;20379;-76
2022/06/19 01:09:23;;;;;;;12.38;2.00;;;18.70;70.80;;;;;;5093775;28;20024;-76
2022/06/19 01:11:50;;;;;;;12.43;2.13;;;18.70;70.70;;;;;;5093382;28;20433;-75
2022/06/19 01:14:20;;;;;;;11.00;2.15;;;18.60;70.90;;;;;;5093748;28;20016;-75
2022/06/19 01:16:46;;;;;;;10.52;1.80;;;18.60;71.30;;;;;;5093707;28;20028;-75
2022/06/19 01:19:21;;;;;;;11.18;1.67;;;18.70;71.60;;;;;;5093561;28;20387;-76
2022/06/19 01:21:53;;;;;;;10.45;1.33;;;18.70;70.40;;;;;;5093425;28;20077;-76
2022/06/19 01:24:57;;;;;;;11.95;2.20;;;18.70;70.30;;;;;;5093381;28;20028;-75
2022/06/19 01:30:11;;;;;;;8.65;1.85;;;18.80;70.60;;;;;;5093736;28;20104;-75
2022/06/19 01:32:37;;;;;;;8.00;1.92;;;19.00;69.90;;;;;;5092889;28;20024;-75
2022/06/19 01:35:06;;;;;;;13.68;1.42;;;19.10;69.30;;;;;;5093468;28;20027;-75
2022/06/19 01:37:33;;;;;;;14.23;2.10;;;19.30;67.50;;;;;;5093523;28;20424;-75
2022/06/19 01:40:07;;;;;;;9.40;1.52;;;19.00;66.70;;;;;;5093192;28;20406;-75
2022/06/19 01:42:32;;;;;;;12.60;1.40;;;18.80;67.10;;;;;;5093331;28;20064;-75
2022/06/19 01:44:58;;;;;;;6.40;1.15;;;18.70;66.10;;;;;;5093355;28;20016;-76
2022/06/19 01:47:25;;;;;;;13.10;1.92;;;18.50;66.60;;;;;;5093408;28;20059;-75
2022/06/19 01:49:54;;;;;;;9.18;1.70;;;18.50;66.40;;;;;;5092926;28;20560;-75
2022/06/19 01:52:22;;;;;;;10.63;1.38;;;18.40;65.60;;;;;;5095045;28;20391;-76
2022/06/19 01:54:53;;;;;;;12.00;1.27;;;18.30;65.40;;;;;;5097118;28;20453;-75
2022/06/19 01:57:20;;;;;;;9.32;1.15;;;18.20;65.60;;;;;;5097234;28;20024;-75
2022/06/19 01:59:48;;;;;;;17.00;1.90;;;18.20;64.90;;;;;;5097013;28;20024;-75
2022/06/19 02:02:15;;;;;;;11.55;1.40;;;18.30;64.70;;;;;;5096759;28;20060;-75
2022/06/19 02:04:42;;;;;;;8.07;1.40;;;18.20;63.70;;;;;;5097172;28;20132;-75
2022/06/19 02:07:13;;;;;;;9.93;1.48;;;18.20;64.40;;;;;;5097136;28;20055;-76
2022/06/19 02:09:38;;;;;;;7.10;1.23;;;18.30;63.40;;;;;;5096946;28;20020;-76
2022/06/19 02:12:05;;;;;;;5.03;0.88;;;18.30;62.20;;;;;;5096708;28;20387;-76
2022/06/19 02:14:32;;;;;;;9.52;1.27;;;18.40;62.70;;;;;;5096718;28;20072;-76
2022/06/19 02:17:03;;;;;;;7.70;1.30;;;18.50;61.50;;;;;;5096748;28;20028;-76
2022/06/19 02:19:29;;;;;;;8.52;1.27;;;18.50;61.10;;;;;;5096789;28;20016;-75
2022/06/19 02:21:55;;;;;;;9.73;1.20;;;18.50;60.80;;;;;;5096806;28;20025;-75
2022/06/19 02:24:24;;;;;;;7.53;0.95;;;18.50;60.90;;;;;;5096834;28;20024;-76
2022/06/19 02:26:50;;;;;;;8.40;1.08;;;18.60;61.10;;;;;;5096429;28;20495;-75
2022/06/19 02:29:18;;;;;;;11.18;1.45;;;18.70;60.90;;;;;;5096598;28;20032;-76
2022/06/19 02:31:47;;;;;;;6.53;1.02;;;18.60;61.20;;;;;;5096722;28;20116;-75
2022/06/19 02:34:25;;;;;;;9.07;1.10;;;18.50;62.30;;;;;;5096385;28;20067;-76
2022/06/19 02:37:00;;;;;;;10.93;1.40;;;18.50;62.80;;;;;;5096492;28;20030;-75
2022/06/19 02:39:42;;;;;;;11.48;1.67;;;18.40;63.60;;;;;;5096233;28;20499;-76
2022/06/19 02:42:20;;;;;;;9.07;1.10;;;18.50;64.10;;;;;;5096210;28;20059;-75
2022/06/19 02:44:48;;;;;;;9.55;1.40;;;18.50;64.50;;;;;;5096327;28;20274;-75
2022/06/19 02:47:14;;;;;;;12.57;1.65;;;18.40;65.00;;;;;;5096176;28;20024;-75
2022/06/19 02:49:40;;;;;;;11.48;1.10;;;18.40;65.90;;;;;;5095894;28;20070;-75
2022/06/19 02:52:07;;;;;;;7.68;1.65;;;18.30;65.50;;;;;;5096096;28;20487;-75
2022/06/19 02:54:32;;;;;;;8.15;1.30;;;18.40;66.50;;;;;;5096185;28;20036;-75
2022/06/19 02:56:58;;;;;;;8.40;1.35;;;18.30;65.20;;;;;;5096133;28;20183;-75
2022/06/19 02:59:24;;;;;;;9.48;0.80;;;18.30;65.80;;;;;;5096055;28;20020;-75
2022/06/19 03:01:50;;;;;;;5.80;0.63;;;18.50;66.20;;;;;;5096087;28;20032;-76
2022/06/19 03:04:32;;;;;;;8.85;1.15;;;18.70;66.10;;;;;;5094185;28;20447;-75
2022/06/19 03:06:58;;;;;;;7.35;1.17;;;18.90;64.80;;;;;;5096054;28;20022;-75
2022/06/19 03:09:24;;;;;;;9.45;1.15;;;18.80;64.90;;;;;;5095680;28;20028;-75
2022/06/19 03:11:50;;;;;;;8.20;0.80;;;18.50;65.60;;;;;;5095762;28;20036;-75
2022/06/19 03:14:16;;;;;;;8.10;1.00;;;18.30;66.00;;;;;;5095735;28;20028;-75
2022/06/19 03:16:42;;;;;;;9.88;1.30;;;18.20;66.70;;;;;;5095265;28;20024;-75
2022/06/19 03:19:07;;;;;;;7.88;1.00;;;18.20;66.90;;;;;;5095540;28;20032;-75
2022/06/19 03:21:33;;;;;;;6.20;0.60;;;18.20;66.40;;;;;;5095622;28;20020;-75
2022/06/19 03:23:59;;;;;;;6.57;0.65;;;18.20;67.00;;;;;;5095461;28;20112;-75
2022/06/19 03:26:26;;;;;;;7.65;1.15;;;18.30;66.40;;;;;;5095497;28;20056;-75
2022/06/19 03:28:53;;;;;;;8.88;0.82;;;18.30;65.40;;;;;;5095469;28;20032;-75
2022/06/19 03:31:21;;;;;;;7.82;1.00;;;18.20;65.90;;;;;;5095055;28;20399;-76
2022/06/19 03:33:47;;;;;;;6.50;0.35;;;18.00;65.90;;;;;;5095531;28;20455;-75
2022/06/19 03:36:13;;;;;;;9.52;0.90;;;17.80;66.50;;;;;;5095523;28;20077;-75
2022/06/19 03:38:39;;;;;;;8.23;1.02;;;17.90;66.00;;;;;;5095140;28;20067;-75
2022/06/19 03:41:04;;;;;;;5.20;0.57;;;18.00;65.90;;;;;;5095369;28;20031;-75
2022/06/19 03:43:33;;;;;;;8.65;0.90;;;17.90;65.90;;;;;;5095245;28;20376;-75
2022/06/19 03:46:00;;;;;;;8.23;0.70;;;17.90;66.70;;;;;;5094784;28;20012;-75
2022/06/19 03:48:25;;;;;;;10.27;1.17;;;17.80;67.10;;;;;;5094979;28;20068;-75
2022/06/19 03:50:52;;;;;;;10.10;1.00;;;17.80;67.70;;;;;;5095083;28;20063;-75
2022/06/19 03:53:18;;;;;;;12.52;1.20;;;17.80;68.40;;;;;;5094660;28;20055;-75
2022/06/19 03:55:44;;;;;;;8.35;0.88;;;17.80;68.50;;;;;;5094977;28;20035;-75
2022/06/19 03:58:09;;;;;;;8.52;1.25;;;17.90;68.80;;;;;;5094741;28;20020;-75
2022/06/19 04:00:35;;;;;;;8.40;1.02;;;17.70;69.30;;;;;;5095030;28;20039;-75
2022/06/19 04:03:01;;;;;;;9.13;1.25;;;17.60;69.90;;;;;;5094819;28;20040;-75
2022/06/19 04:05:26;;;;;;;9.88;1.00;;;17.50;70.40;;;;;;5094572;28;20016;-75
2022/06/19 04:07:52;;;;;;;9.30;1.15;;;17.50;70.50;;;;;;5094366;28;20078;-75
2022/06/19 04:10:20;;;;;;;9.63;1.42;;;17.50;70.30;;;;;;5094948;28;20021;-75
2022/06/19 04:12:46;;;;;;;10.05;1.02;;;17.30;70.80;;;;;;5094578;28;20468;-75
2022/06/19 04:15:12;;;;;;;9.60;1.60;;;17.20;71.70;;;;;;5094218;28;20035;-75
2022/06/19 04:17:39;;;;;;;11.90;1.15;;;17.30;71.50;;;;;;5094288;28;20054;-75
2022/06/19 04:20:07;;;;;;;11.40;1.50;;;17.40;71.40;;;;;;5094605;28;20020;-75
2022/06/19 04:22:33;;;;;;;14.90;1.20;;;17.40;71.60;;;;;;5094394;28;20044;-75
2022/06/19 04:24:59;;;;;;;11.00;1.00;;;17.40;72.00;;;;;;5094582;28;20035;-75
2022/06/19 04:27:25;;;;;;;10.10;1.00;;;17.40;71.60;;;;;;5094083;28;20028;-75
2022/06/19 04:29:50;;;;;;;14.02;1.63;;;17.30;71.80;;;;;;5094421;28;20028;-75
2022/06/19 04:32:16;;;;;;;14.55;1.80;;;17.20;71.90;;;;;;5094177;28;20023;-75
2022/06/19 04:34:42;;;;;;;12.07;1.88;;;17.10;72.70;;;;;;5094170;28;20016;-75
2022/06/19 04:37:07;;;;;;;14.40;0.95;;;17.10;72.30;;;;;;5094415;28;20024;-75
2022/06/19 04:39:33;;;;;;;7.88;1.00;;;17.10;72.40;;;;;;5094015;28;20406;-75
2022/06/19 04:41:59;;;;;;;12.32;1.10;;;17.20;71.70;;;;;;5093953;28;20392;-75
2022/06/19 04:44:26;;;;;;;9.88;1.70;;;17.30;71.00;;;;;;5093715;28;20475;-75
2022/06/19 04:46:51;;;;;;;7.93;1.02;;;17.40;69.60;;;;;;5093741;28;20120;-75
2022/06/19 04:49:17;;;;;;;11.63;1.80;;;17.30;69.70;;;;;;5093526;28;20075;-75
2022/06/19 04:51:44;;;;;;;11.10;0.90;;;17.20;68.50;;;;;;5093676;28;20020;-75
2022/06/19 04:54:11;;;;;;;8.65;0.82;;;17.20;68.40;;;;;;5093762;28;20055;-75
2022/06/19 04:56:38;;;;;;;14.05;0.80;;;17.20;67.40;;;;;;5093855;28;20106;-75
2022/06/19 04:59:07;;;;;;;6.47;1.02;;;17.30;67.30;;;;;;5093542;28;20024;-75
2022/06/19 05:01:36;;;;;;;8.43;0.93;;;17.40;66.70;;;;;;5093730;28;20028;-75
2022/06/19 05:04:05;;;;;;;10.90;1.35;;;17.60;66.90;;;;;;5093206;28;20056;-75
2022/06/19 05:06:31;;;;;;;10.07;1.20;;;17.60;66.80;;;;;;5093765;28;20027;-75
2022/06/19 05:09:00;;;;;;;8.57;1.35;;;17.60;66.80;;;;;;5093560;28;20077;-75
2022/06/19 05:11:27;;;;;;;6.97;0.88;;;17.60;66.90;;;;;;5093289;28;20448;-75
2022/06/19 05:13:54;;;;;;;7.93;1.05;;;17.50;67.90;;;;;;5093745;28;20028;-75
2022/06/19 05:16:23;;;;;;;10.48;1.40;;;17.50;67.90;;;;;;5093342;28;20036;-75
2022/06/19 05:18:50;;;;;;;10.98;1.27;;;17.50;68.10;;;;;;5093778;28;20016;-75
2022/06/19 05:21:16;;;;;;;6.90;0.77;;;17.60;67.90;;;;;;5093490;28;20058;-75
2022/06/19 05:23:44;;;;;;;6.65;0.60;;;17.70;67.90;;;;;;5093231;28;20032;-75
2022/06/19 05:26:34;;;;;;;7.38;0.75;;;17.80;68.40;;;;;;5092595;28;20368;-75
2022/06/19 05:29:01;;;;;;;9.95;1.10;;;17.90;67.90;;;;;;5093670;28;20356;-75
2022/06/19 05:31:27;;;;;;;7.82;0.80;;;18.00;67.50;;;;;;5093536;28;20024;-75
2022/06/19 05:33:54;;;;;;;5.82;0.77;;;18.20;67.50;;;;;;5093228;28;20422;-75
2022/06/19 05:36:20;;;;;;;7.05;0.80;;;18.30;66.60;;;;;;5093537;28;20024;-75
2022/06/19 05:38:46;;;;;;;7.35;0.90;;;18.40;66.30;;;;;;5093329;28;20031;-75
2022/06/19 05:41:12;;;;;;;4.80;0.60;;;18.50;66.40;;;;;;5093416;28;20114;-75
2022/06/19 05:43:38;;;;;;;6.80;0.90;;;18.70;66.20;;;;;;5093108;28;20039;-75
2022/06/19 05:46:10;;;;;;;8.40;0.93;;;18.90;65.00;;;;;;5093220;28;20024;-75
2022/06/19 05:48:36;;;;;;;4.88;0.65;;;19.00;63.60;;;;;;5093019;28;20048;-75
2022/06/19 05:51:08;;;;;;;7.85;0.95;;;19.10;63.70;;;;;;5093039;28;20039;-75
2022/06/19 05:53:38;;;;;;;9.38;0.82;;;19.10;64.00;;;;;;5093338;28;20028;-75
2022/06/19 05:56:04;;;;;;;7.00;1.00;;;19.20;64.30;;;;;;5092931;28;20540;-75
2022/06/19 05:58:31;;;;;;;9.05;0.90;;;19.00;64.50;;;;;;5093076;28;20073;-75
2022/06/19 06:00:56;;;;;;;7.18;0.93;;;19.10;64.30;;;;;;5093328;28;20024;-75
2022/06/19 06:03:23;;;;;;;6.10;0.60;;;19.10;64.70;;;;;;5092828;28;20039;-75
2022/06/19 06:05:50;;;;;;;4.40;0.70;;;19.30;64.70;;;;;;5092932;28;20051;-75
2022/06/19 06:08:17;;;;;;;6.85;0.95;;;19.40;63.60;;;;;;5092731;28;20032;-75
2022/06/19 06:10:43;;;;;;;3.78;0.70;;;19.60;62.70;;;;;;5092912;28;20016;-75
2022/06/19 06:13:08;;;;;;;5.63;0.60;;;19.60;60.50;;;;;;5092745;28;20151;-75
2022/06/19 06:15:34;;;;;;;3.65;0.50;;;19.40;59.20;;;;;;5093205;28;20035;-75
2022/06/19 06:18:02;;;;;;;4.88;0.50;;;19.40;59.60;;;;;;5093102;28;20081;-75
2022/06/19 06:20:28;;;;;;;4.88;0.45;;;19.60;57.90;;;;;;5092883;28;20052;-75
2022/06/19 06:22:54;;;;;;;4.15;0.38;;;19.50;57.60;;;;;;5092877;28;20036;-75
2022/06/19 06:25:20;;;;;;;5.93;0.60;;;19.50;58.80;;;;;;5092856;28;20464;-75
2022/06/19 06:27:46;;;;;;;8.07;0.60;;;19.60;57.20;;;;;;5093025;28;20060;-75
2022/06/19 06:30:12;;;;;;;3.63;0.50;;;19.80;57.00;;;;;;5092788;28;20023;-75
2022/06/19 06:32:38;;;;;;;5.15;0.40;;;19.80;57.00;;;;;;5092438;28;20387;-75
2022/06/19 06:35:04;;;;;;;3.05;0.68;;;19.90;56.30;;;;;;5091105;28;20123;-75
2022/06/19 06:37:30;;;;;;;5.75;0.50;;;20.00;56.30;;;;;;5093057;28;20020;-75
2022/06/19 06:39:55;;;;;;;5.13;0.50;;;20.00;56.10;;;;;;5096458;28;20387;-75
2022/06/19 06:42:21;;;;;;;4.35;0.75;;;20.00;55.30;;;;;;5096155;28;20044;-75
2022/06/19 06:44:47;;;;;;;9.45;0.68;;;19.90;55.70;;;;;;5095912;28;20024;-75
2022/06/19 06:47:12;;;;;;;5.50;0.50;;;19.80;56.20;;;;;;5096332;28;20024;-75
2022/06/19 06:49:38;;;;;;;5.25;0.70;;;19.70;56.50;;;;;;5095893;28;20080;-75
2022/06/19 06:52:08;;;;;;;4.43;0.52;;;19.60;57.10;;;;;;5096297;28;20028;-75
2022/06/19 06:54:38;;;;;;;6.60;0.93;;;19.70;58.50;;;;;;5096103;28;20050;-75
2022/06/19 06:57:05;;;;;;;7.82;1.00;;;19.70;60.50;;;;;;5096103;28;20031;-75
2022/06/19 06:59:31;;;;;;;7.85;1.25;;;19.60;61.60;;;;;;5095853;28;20024;-75
2022/06/19 07:01:57;;;;;;;6.95;0.70;;;19.50;62.60;;;;;;5095767;28;20039;-75
2022/06/19 07:04:23;;;;;;;5.88;0.50;;;19.40;63.70;;;;;;5095999;28;20111;-75
2022/06/19 07:06:48;;;;;;;7.80;1.20;;;19.30;64.70;;;;;;5095760;28;20043;-75
2022/06/19 07:09:14;;;;;;;6.75;0.73;;;19.30;66.00;;;;;;5095881;28;20024;-75
2022/06/19 07:11:41;;;;;;;6.28;0.57;;;19.20;66.70;;;;;;5095925;28;20051;-75
2022/06/19 07:14:08;;;;;;;6.60;0.50;;;19.20;68.10;;;;;;5095764;28;20038;-75
2022/06/19 07:16:34;;;;;;;5.53;0.73;;;19.20;68.20;;;;;;5095607;28;20086;-75
2022/06/19 07:19:00;;;;;;;5.35;0.63;;;19.10;70.20;;;;;;5095784;28;20383;-75
2022/06/19 07:21:25;;;;;;;6.30;1.10;;;19.00;70.90;;;;;;5095402;28;20016;-75
2022/06/19 07:23:51;;;;;;;6.07;0.65;;;19.00;71.40;;;;;;5095538;28;20043;-75
2022/06/19 07:26:19;;;;;;;7.32;0.90;;;18.90;72.30;;;;;;5095265;28;20051;-75
2022/06/19 07:28:46;;;;;;;9.35;1.27;;;18.90;74.40;;;;;;5095383;28;20111;-75
2022/06/19 07:31:12;;;;;;;7.75;1.08;;;18.70;76.00;;;;;;5095517;28;20024;-75
2022/06/19 07:33:39;;;;;;;7.38;0.93;;;18.70;75.70;;;;;;5095300;28;20024;-75
2022/06/19 07:36:12;;;;;;;8.25;0.95;;;18.70;75.80;;;;;;5095503;28;20036;-75
2022/06/19 07:38:37;;;;;;;6.80;0.75;;;18.90;75.60;;;;;;5095086;28;20023;-75
2022/06/19 07:41:03;;;;;;;11.45;2.03;;;18.90;75.60;;;;;;5095055;28;20024;-75
2022/06/19 07:43:29;;;;;;;11.52;1.45;;;19.10;76.50;;;;;;5094933;28;20123;-75
2022/06/19 07:45:54;;;;;;;12.55;1.35;;;19.10;77.50;;;;;;5095130;28;20020;-75
2022/06/19 07:51:08;;;;;;;10.35;1.38;;;19.00;77.60;;;;;;5083937;28;20028;-75
2022/06/19 07:53:34;;;;;;;9.57;1.25;;;19.10;78.30;;;;;;5094866;28;20024;-75
2022/06/19 07:55:59;;;;;;;11.50;1.55;;;19.00;78.80;;;;;;5095088;28;20024;-75
2022/06/19 07:58:25;;;;;;;12.23;1.65;;;19.00;79.50;;;;;;5094704;28;20055;-75
2022/06/19 08:00:51;;;;;;;12.07;1.40;;;18.80;80.30;;;;;;5094952;28;20017;-75
2022/06/19 08:03:16;;;;;;;8.80;1.30;;;18.70;81.00;;;;;;5094866;28;20494;-75
2022/06/19 08:05:43;;;;;;;12.02;2.15;;;18.60;81.40;;;;;;5094627;28;20085;-75
2022/06/19 08:08:19;;;;;;;11.18;1.83;;;18.50;81.70;;;;;;5094584;28;20464;-75
2022/06/19 08:10:47;;;;;;;12.82;2.00;;;18.30;82.70;;;;;;5094519;28;20073;-75
2022/06/19 08:13:14;;;;;;;10.50;1.65;;;18.20;85.10;;;;;;5094428;28;20483;-75
2022/06/19 08:15:40;;;;;;;9.90;1.50;;;18.10;85.50;;;;;;5094765;28;20028;-75
2022/06/19 08:18:06;;;;;;;10.23;1.33;;;18.00;86.90;;;;;;5094282;28;20021;-75
2022/06/19 08:20:31;;;;;;;10.00;1.58;;;17.70;88.10;;;;;;5094391;28;20027;-75
2022/06/19 08:22:57;;;;;;;10.63;1.85;;;17.40;89.50;;;;;;5094514;28;20119;-75
2022/06/19 08:25:24;;;;;;;15.00;2.67;;;17.30;90.60;;;;;;5093880;28;20074;-75
2022/06/19 08:27:51;;;;;;;12.65;1.52;;;17.20;91.10;;;;;;5094434;28;20024;-75
2022/06/19 08:30:18;;;;;;;16.13;1.95;;;17.20;91.40;;;;;;5094424;28;20026;-75
2022/06/19 08:32:44;;;;;;;8.35;1.40;;;17.20;91.50;;;;;;5094012;28;20425;-75
2022/06/19 08:35:09;;;;;;;12.95;1.38;;;17.20;91.70;;;;;;5093988;28;20045;-75
2022/06/19 08:37:36;;;;;;;15.45;2.28;;;17.20;91.70;;;;;;5093763;28;20020;-75
2022/06/19 08:40:17;;;;;;;9.50;1.30;;;17.20;91.70;;;;;;5094095;28;20023;-75
2022/06/19 08:43:07;;;;;;;9.73;1.48;;;17.20;91.70;;;;;;5093935;28;20028;-75
2022/06/19 08:45:38;;;;;;;5.93;0.98;;;17.30;91.90;;;;;;5094206;28;20025;-75
2022/06/19 08:48:43;;;;;;;10.85;1.73;;;17.50;91.60;;;;;;5093528;28;20044;-75
2022/06/19 08:51:15;;;;;;;12.75;2.08;;;17.80;91.40;;;;;;5090436;28;20109;-75
2022/06/19 08:53:46;;;;;;;9.93;1.43;;;17.90;91.10;;;;;;5093801;28;20023;-75
2022/06/19 08:56:28;;;;;;;11.80;1.70;;;17.90;91.00;;;;;;5093928;28;20036;-75
2022/06/19 08:59:05;;;;;;;9.00;1.30;;;17.90;90.90;;;;;;5093362;28;20031;-75
2022/06/19 09:02:01;;;;;;;12.52;1.63;;;17.80;91.00;;;;;;5093809;28;20023;-75
2022/06/19 09:07:38;;;;;;;8.75;1.25;;;17.90;91.50;;;;;;5093603;28;20094;-75
2022/06/19 09:10:22;;;;;;;10.57;1.23;;;17.90;91.20;;;;;;5092961;28;20040;-75
2022/06/19 09:13:12;;;;;;;12.77;1.80;;;17.70;90.90;;;;;;5093802;28;20115;-75
2022/06/19 09:15:43;;;;;;;10.73;1.55;;;17.60;91.50;;;;;;5093778;28;20027;-75
2022/06/19 09:18:30;;;;;;;7.85;1.02;;;17.50;91.60;;;;;;5093688;28;20068;-75
2022/06/19 09:21:26;;;;;;;11.00;1.70;;;17.80;91.60;;;;;;5092939;28;20472;-75
2022/06/19 09:24:09;;;;;;;11.73;1.45;;;17.90;92.10;;;;;;5093647;28;20028;-75
2022/06/19 09:26:55;;;;;;;6.97;1.27;;;17.90;92.20;;;;;;5093635;28;20024;-75
2022/06/19 09:29:27;;;;;;;8.32;1.30;;;18.00;92.30;;;;;;5093158;28;20062;-75
2022/06/19 09:32:10;;;;;;;8.85;1.60;;;18.00;92.80;;;;;;5093042;28;20073;-75
2022/06/19 09:34:44;;;;;;;8.68;1.42;;;18.00;93.20;;;;;;5093122;28;20035;-75
2022/06/19 09:37:13;;;;;;;10.65;1.42;;;18.10;93.70;;;;;;5093402;28;20032;-75
2022/06/19 09:39:47;;;;;;;9.02;1.00;;;18.20;93.10;;;;;;5093438;28;20024;-75
2022/06/19 09:42:32;;;;;;;7.95;1.83;;;18.30;91.20;;;;;;5092952;28;20036;-75
2022/06/19 09:45:35;;;;;;;10.38;2.35;;;18.40;91.70;;;;;;5093420;28;20108;-75
2022/06/19 09:48:15;;;;;;;5.82;0.90;;;18.40;90.70;;;;;;5073930;28;20042;-75
2022/06/19 09:50:58;;;;;;;7.10;0.75;;;18.60;91.10;;;;;;5092911;28;20046;-75
2022/06/19 09:53:41;;;;;;;8.27;1.02;;;18.80;90.40;;;;;;5093048;28;20044;-76
2022/06/19 09:56:20;;;;;;;;;;;19.00;88.10;;;;;;5093764;28;20032;-75
2022/06/19 09:58:53;;;;;;;5.63;0.70;;;19.10;84.10;;;;;;5093403;28;19907;-76
2022/06/19 10:01:20;;;;;;;6.63;0.70;;;19.10;83.30;;;;;;5093124;28;20020;-75
2022/06/19 10:03:51;;;;;;;7.95;0.77;;;19.00;82.10;;;;;;5093194;28;20061;-76
2022/06/19 10:06:22;;;;;;;4.07;0.65;;;18.90;81.30;;;;;;5092748;28;20390;-75
2022/06/19 10:08:52;;;;;;;5.45;0.93;;;18.90;82.10;;;;;;5093081;28;20060;-76
2022/06/19 10:11:34;;;;;;;6.43;1.00;;;19.00;79.60;;;;;;5092729;28;20020;-76
2022/06/19 10:14:05;;;;;;;3.35;0.70;;;19.00;80.60;;;;;;5095739;28;20020;-75
2022/06/19 10:17:02;;;;;;;4.82;1.05;;;19.00;84.20;;;;;;5096653;28;20024;-76
2022/06/19 10:19:43;;;;;;;4.10;0.50;;;19.10;83.50;;;;;;5095457;28;20040;-75
2022/06/19 10:22:16;;;;;;;5.13;0.80;;;19.20;80.40;;;;;;5096656;28;20036;-75
2022/06/19 10:25:09;;;;;;;2.78;0.30;;;19.40;80.70;;;;;;5096747;28;20494;-76
2022/06/19 10:27:59;;;;;;;3.40;0.50;;;19.50;81.30;;;;;;5096472;28;20124;-76
2022/06/19 10:31:03;;;;;;;6.97;0.70;;;19.60;80.90;;;;;;5096471;28;20028;-75
2022/06/19 10:33:56;;;;;;;4.25;0.88;;;19.70;79.10;;;;;;5096241;28;20028;-76
2022/06/19 10:36:47;;;;;;;5.18;1.08;;;19.80;80.60;;;;;;5096423;28;20020;-76
2022/06/19 10:39:22;;;;;;;3.67;0.60;;;20.00;79.70;;;;;;5096685;28;20036;-75
2022/06/19 10:42:10;;;;;;;7.63;1.23;;;20.20;79.70;;;;;;5096225;28;20027;-75
2022/06/19 10:45:05;;;;;;;6.03;1.17;;;20.10;78.90;;;;;;5096310;28;20024;-75
2022/06/19 10:48:02;;;;;;;7.18;1.50;;;20.00;79.90;;;;;;5096355;28;20386;-76
2022/06/19 10:50:48;;;;;;;7.93;0.90;;;20.00;80.20;;;;;;5096158;28;20032;-75
2022/06/19 10:53:16;;;;;;;5.90;0.95;;;19.90;81.60;;;;;;5095259;28;20421;-75
2022/06/19 10:56:00;;;;;;;7.63;2.08;;;20.00;83.40;;;;;;5095726;28;20046;-76
2022/06/19 10:58:29;;;;;;;6.40;1.05;;;20.10;83.00;;;;;;5095981;28;20036;-76
2022/06/19 11:01:01;;;;;;;5.72;0.63;;;20.10;82.40;;;;;;5095986;28;20023;-76
2022/06/19 11:06:34;;;;;;;6.57;1.10;;;20.60;82.50;;;;;;5096150;28;20566;-76
2022/06/19 11:09:16;;;;;;;6.20;1.05;;;20.70;80.60;;;;;;5095695;28;20536;-76
2022/06/19 11:11:43;;;;;;;8.30;1.30;;;20.90;80.00;;;;;;5095849;28;20035;-76
2022/06/19 11:14:29;;;;;;;8.02;1.20;;;21.00;80.50;;;;;;5095856;28;20055;-76
2022/06/19 11:16:59;;;;;;;7.15;1.50;;;21.00;79.10;;;;;;5095261;28;20024;-76
2022/06/19 11:19:41;;;;;;;9.32;1.40;;;20.70;79.80;;;;;;5095438;28;20468;-76
2022/06/19 11:22:24;;;;;;;11.27;1.73;;;20.50;81.40;;;;;;5095419;28;20062;-75
2022/06/19 11:24:50;;;;;;;10.40;1.45;;;20.40;82.80;;;;;;5094288;28;20075;-76
2022/06/19 11:27:20;;;;;;;8.00;1.25;;;20.30;82.30;;;;;;5095299;28;20039;-76
2022/06/19 11:29:49;;;;;;;7.47;1.35;;;20.40;82.30;;;;;;5095161;28;20023;-76
2022/06/19 11:32:20;;;;;;;7.38;1.30;;;20.60;83.60;;;;;;5095549;28;20157;-76
2022/06/19 11:35:09;;;;;;;8.27;1.70;;;20.90;82.90;;;;;;5095372;28;20020;-76
2022/06/19 11:37:51;;;;;;;6.88;1.13;;;21.20;81.40;;;;;;5095217;28;20035;-76
2022/06/19 11:40:32;;;;;;;10.65;1.55;;;21.20;80.80;;;;;;5095398;28;20028;-76
2022/06/19 11:43:00;;;;;;;9.07;1.50;;;21.30;81.00;;;;;;5094612;28;20475;-76
2022/06/19 11:45:33;;;;;;;6.32;1.30;;;21.00;80.50;;;;;;5095282;28;20024;-76
2022/06/19 11:48:03;;;;;;;5.75;1.20;;;20.80;79.90;;;;;;5095134;28;20091;-76
2022/06/19 11:50:37;;;;;;;8.30;1.05;;;20.70;80.50;;;;;;5094697;28;20392;-76
2022/06/19 11:53:19;;;;;;;8.07;1.00;;;20.90;81.10;;;;;;5094555;28;20016;-76
2022/06/19 11:56:12;;;;;;;10.40;1.23;;;20.70;82.10;;;;;;5094933;28;20442;-76
2022/06/19 11:58:42;;;;;;;5.63;1.10;;;20.70;82.10;;;;;;5094552;28;20464;-76
2022/06/19 12:01:11;;;;;;;6.88;0.90;;;20.80;82.10;;;;;;5094943;28;20028;-75
2022/06/19 12:03:58;;;;;;;8.25;1.00;;;20.90;81.60;;;;;;5094544;28;20042;-76
2022/06/19 12:06:45;;;;;;;8.38;1.30;;;21.20;81.20;;;;;;5094312;28;20044;-76
2022/06/19 12:09:28;;;;;;;5.30;1.08;;;21.30;80.50;;;;;;5094502;28;20020;-76
2022/06/19 12:12:16;;;;;;;5.63;0.88;;;21.30;79.40;;;;;;5094465;28;20031;-76
2022/06/19 12:14:54;;;;;;;4.93;1.05;;;21.40;80.00;;;;;;5094355;28;20035;-76
2022/06/19 12:17:31;;;;;;;5.68;0.95;;;21.20;78.80;;;;;;5094488;28;20107;-76
2022/06/19 12:20:06;;;;;;;6.65;0.98;;;21.00;80.10;;;;;;5094119;28;20024;-76
2022/06/19 12:22:53;;;;;;;7.50;1.38;;;21.00;79.60;;;;;;5093801;28;20127;-76
2022/06/19 12:25:24;;;;;;;10.00;1.23;;;21.00;79.60;;;;;;5094474;28;20050;-76
2022/06/19 12:28:04;;;;;;;7.07;1.17;;;20.80;80.00;;;;;;5094325;28;20389;-76
2022/06/19 12:30:35;;;;;;;6.85;1.05;;;20.70;80.90;;;;;;5094377;28;20024;-76
2022/06/19 12:33:08;;;;;;;10.40;1.98;;;20.70;80.90;;;;;;5093876;28;20099;-76
2022/06/19 12:35:42;;;;;;;10.52;1.60;;;20.70;80.40;;;;;;5093993;28;20040;-76
2022/06/19 12:38:13;;;;;;;8.65;1.23;;;20.60;80.20;;;;;;5094232;28;20024;-76
2022/06/19 12:41:19;;;;;;;9.63;1.88;;;20.50;81.60;;;;;;5093963;28;20528;-76
2022/06/19 12:43:57;;;;;;;8.38;1.30;;;20.50;81.00;;;;;;5085322;28;20040;-76
2022/06/19 12:46:37;;;;;;;10.48;1.23;;;20.60;80.40;;;;;;5094224;28;20077;-76
2022/06/19 12:49:31;;;;;;;6.22;1.08;;;20.50;80.60;;;;;;5093675;28;20406;-76
2022/06/19 12:52:28;;;;;;;6.70;1.70;;;20.50;80.80;;;;;;5093729;28;20023;-75
2022/06/19 12:55:01;;;;;;;7.30;1.38;;;20.60;80.20;;;;;;5093788;28;20024;-75
2022/06/19 12:57:42;;;;;;;8.88;1.65;;;20.70;79.90;;;;;;5093449;28;20459;-76
2022/06/19 13:00:07;;;;;;;15.85;1.55;;;20.80;79.90;;;;;;5093618;28;20024;-76
2022/06/19 13:02:52;;;;;;;4.70;1.08;;;20.70;80.60;;;;;;5093772;28;20401;-76
2022/06/19 13:05:47;;;;;;;6.88;1.10;;;20.70;80.20;;;;;;5093520;28;20459;-76
2022/06/19 13:08:31;;;;;;;4.25;0.70;;;20.90;80.30;;;;;;5093766;28;20032;-76
2022/06/19 13:11:11;;;;;;;7.88;0.90;;;20.90;80.50;;;;;;5093179;28;20472;-75
2022/06/19 13:13:55;;;;;;;3.47;0.70;;;20.80;78.80;;;;;;5093721;28;20032;-76
2022/06/19 13:16:52;;;;;;;6.18;1.00;;;20.60;79.40;;;;;;5093402;28;20020;-76
2022/06/19 13:19:35;;;;;;;3.85;0.90;;;20.40;80.20;;;;;;5093586;28;20028;-76